createdAt,value
2019-02-17T00:02:30.918Z,100.00
2019-02-17T00:05:02.402Z,100.00
2019-02-17T00:07:34.224Z,100.00
2019-02-17T00:10:06.629Z,100.00
2019-02-17T00:12:37.855Z,99.99
2019-02-17T00:15:09.529Z,100.00
2019-02-17T00:17:40.608Z,100.00
2019-02-17T00:20:11.835Z,100.00
2019-02-17T00:22:43.092Z,100.00
2019-02-17T00:25:14.506Z,100.00
2019-02-17T00:27:45.987Z,100.00
2019-02-17T00:30:17.415Z,100.00
2019-02-17T00:32:49.161Z,100.00
2019-02-17T00:35:20.618Z,100.00
2019-02-17T00:37:52.074Z,100.00
2019-02-17T00:40:23.393Z,100.00
2019-02-17T00:42:54.864Z,100.00
2019-02-17T00:45:26.311Z,100.00
2019-02-17T00:47:57.772Z,100.00
2019-02-17T00:50:29.092Z,100.00
2019-02-17T00:53:00.562Z,100.00
2019-02-17T00:55:32.060Z,100.00
2019-02-17T00:58:03.369Z,100.00
2019-02-17T01:00:34.745Z,100.00
2019-02-17T01:03:06.257Z,100.00
2019-02-17T01:05:37.587Z,100.00
2019-02-17T01:08:08.959Z,100.00
2019-02-17T01:10:40.291Z,100.00
2019-02-17T01:13:11.738Z,100.00
2019-02-17T01:15:43.144Z,100.00
2019-02-17T01:18:14.650Z,100.00
2019-02-17T01:20:45.988Z,100.00
2019-02-17T01:23:17.455Z,100.00
2019-02-17T01:25:48.846Z,100.00
2019-02-17T01:28:20.252Z,100.00
2019-02-17T01:30:51.733Z,100.00
2019-02-17T01:33:23.160Z,100.00
2019-02-17T01:35:54.679Z,100.00
2019-02-17T01:38:26.043Z,100.00
2019-02-17T01:40:57.516Z,100.00
2019-02-17T01:43:28.821Z,100.00
2019-02-17T01:46:00.209Z,100.00
2019-02-17T01:48:31.541Z,100.00
2019-02-17T01:51:02.996Z,100.00
2019-02-17T01:53:34.363Z,100.00
2019-02-17T01:56:05.734Z,100.00
2019-02-17T01:58:37.143Z,100.00
2019-02-17T02:01:08.617Z,100.00
2019-02-17T02:03:40.029Z,100.00
2019-02-17T02:06:11.527Z,100.00
2019-02-17T02:08:42.908Z,100.00
2019-02-17T02:11:14.291Z,100.00
2019-02-17T02:13:45.855Z,100.00
2019-02-17T02:16:17.312Z,100.00
2019-02-17T02:18:48.691Z,100.00
2019-02-17T02:21:20.019Z,100.00
2019-02-17T02:23:51.455Z,100.00
2019-02-17T02:26:23.952Z,100.00
2019-02-17T02:28:56.428Z,100.00
2019-02-17T02:31:27.803Z,100.00
2019-02-17T02:33:59.188Z,100.00
2019-02-17T02:36:30.511Z,100.00
2019-02-17T02:39:01.812Z,100.00
2019-02-17T02:41:35.012Z,100.00
2019-02-17T02:44:06.647Z,100.00
2019-02-17T02:46:37.991Z,100.00
2019-02-17T02:49:09.333Z,100.00
2019-02-17T02:51:40.783Z,100.00
2019-02-17T02:54:12.259Z,100.00
2019-02-17T02:56:43.701Z,100.00
2019-02-17T02:59:15.128Z,100.00
2019-02-17T03:01:46.582Z,100.00
2019-02-17T03:04:17.959Z,100.00
2019-02-17T03:06:51.098Z,100.00
2019-02-17T03:09:22.676Z,100.00
2019-02-17T03:11:53.947Z,100.00
2019-02-17T03:14:25.385Z,100.00
2019-02-17T03:16:56.715Z,100.00
2019-02-17T03:19:28.060Z,100.00
2019-02-17T03:21:59.528Z,100.00
2019-02-17T03:24:30.943Z,100.00
2019-02-17T03:27:02.341Z,100.00
2019-02-17T03:29:33.755Z,100.00
2019-02-17T03:32:05.205Z,100.00
2019-02-17T03:34:36.656Z,100.00
2019-02-17T03:37:08.100Z,100.00
2019-02-17T03:39:39.718Z,100.00
2019-02-17T03:42:11.170Z,100.00
2019-02-17T03:44:42.658Z,100.00
2019-02-17T03:47:14.203Z,100.00
2019-02-17T03:49:45.781Z,100.00
2019-02-17T03:52:17.220Z,100.00
2019-02-17T03:54:48.658Z,100.00
2019-02-17T03:57:19.918Z,100.00
2019-02-17T03:59:51.381Z,100.00
2019-02-17T04:02:22.907Z,100.00
2019-02-17T04:04:54.290Z,100.00
2019-02-17T04:07:26.598Z,100.00
2019-02-17T04:09:58.106Z,100.00
2019-02-17T04:12:30.454Z,100.00
2019-02-17T04:15:01.902Z,100.00
2019-02-17T04:17:33.329Z,100.00
2019-02-17T04:20:05.860Z,100.00
2019-02-17T04:22:38.314Z,100.00
2019-02-17T04:25:09.764Z,100.00
2019-02-17T04:27:41.297Z,100.00
2019-02-17T04:30:12.759Z,100.00
2019-02-17T04:32:44.101Z,100.00
2019-02-17T04:35:15.353Z,100.00
2019-02-17T04:37:46.833Z,100.00
2019-02-17T04:40:18.287Z,100.00
2019-02-17T04:42:49.658Z,100.00
2019-02-17T04:45:21.148Z,100.00
2019-02-17T04:47:52.611Z,100.00
2019-02-17T04:50:24.053Z,100.00
2019-02-17T04:52:55.393Z,100.00
2019-02-17T04:55:27.056Z,100.00
2019-02-17T04:57:58.504Z,100.00
2019-02-17T05:00:39.509Z,100.00
2019-02-17T05:03:03.043Z,100.00
2019-02-17T05:05:34.378Z,100.00
2019-02-17T05:08:05.723Z,100.00
2019-02-17T05:10:37.218Z,100.00
2019-02-17T05:13:08.673Z,100.00
2019-02-17T05:15:40.240Z,100.00
2019-02-17T05:18:11.742Z,100.00
2019-02-17T05:20:43.074Z,100.00
2019-02-17T05:23:14.529Z,100.00
2019-02-17T05:25:45.894Z,100.00
2019-02-17T05:28:17.528Z,100.00
2019-02-17T05:30:52.938Z,100.00
2019-02-17T05:33:22.190Z,100.00
2019-02-17T05:35:53.627Z,100.00
2019-02-17T05:38:26.162Z,100.00
2019-02-17T05:40:57.535Z,100.00
2019-02-17T05:43:29.087Z,100.00
2019-02-17T05:46:00.363Z,100.00
2019-02-17T05:48:31.733Z,100.00
2019-02-17T05:51:03.249Z,100.00
2019-02-17T05:53:34.605Z,100.00
2019-02-17T05:56:06.073Z,100.00
2019-02-17T05:58:37.490Z,100.00
2019-02-17T06:01:08.869Z,100.00
2019-02-17T06:03:40.305Z,100.00
2019-02-17T06:06:11.718Z,100.00
2019-02-17T06:08:43.196Z,100.00
2019-02-17T06:11:14.512Z,100.00
2019-02-17T06:13:45.868Z,100.00
2019-02-17T06:16:17.222Z,100.00
2019-02-17T06:18:48.737Z,100.00
2019-02-17T06:21:20.112Z,100.00
2019-02-17T06:23:51.479Z,100.00
2019-02-17T06:26:22.812Z,100.00
2019-02-17T06:28:54.145Z,100.00
2019-02-17T06:31:28.846Z,100.00
2019-02-17T06:34:00.380Z,99.60
2019-02-17T06:36:31.812Z,99.48
2019-02-17T06:39:04.746Z,99.74
2019-02-17T06:41:36.294Z,99.59
2019-02-17T06:44:07.652Z,99.53
2019-02-17T06:46:40.550Z,99.55
2019-02-17T06:49:12.148Z,99.66
2019-02-17T06:51:43.590Z,100.00
2019-02-17T06:54:15.050Z,99.17
2019-02-17T06:56:48.056Z,99.58
2019-02-17T06:59:19.387Z,99.07
2019-02-17T07:01:50.882Z,98.36
2019-02-17T07:04:23.825Z,97.92
2019-02-17T07:06:56.822Z,98.23
2019-02-17T07:09:28.278Z,98.04
2019-02-17T07:11:59.486Z,98.15
2019-02-17T07:14:30.573Z,97.91
2019-02-17T07:17:02.171Z,98.68
2019-02-17T07:19:33.250Z,98.49
2019-02-17T07:22:04.271Z,97.76
2019-02-17T07:24:35.717Z,97.09
2019-02-17T07:27:07.167Z,96.50
2019-02-17T07:29:38.378Z,95.92
2019-02-17T07:32:11.322Z,95.53
2019-02-17T07:34:42.827Z,94.70
2019-02-17T07:37:14.452Z,94.38
2019-02-17T07:39:45.951Z,96.12
2019-02-17T07:42:17.285Z,95.61
2019-02-17T07:44:48.731Z,95.35
2019-02-17T07:47:21.107Z,94.64
2019-02-17T07:49:52.559Z,94.30
2019-02-17T07:52:23.945Z,93.68
2019-02-17T07:54:55.246Z,93.53
2019-02-17T07:57:26.723Z,92.73
2019-02-17T07:59:58.193Z,92.11
2019-02-17T08:02:29.620Z,91.75
2019-02-17T08:05:01.068Z,92.27
2019-02-17T08:07:32.501Z,91.76
2019-02-17T08:10:08.436Z,92.31
2019-02-17T08:12:39.927Z,92.08
2019-02-17T08:15:11.287Z,91.69
2019-02-17T08:17:42.618Z,91.40
2019-02-17T08:20:13.980Z,90.04
2019-02-17T08:22:45.344Z,89.46
2019-02-17T08:25:21.727Z,89.39
2019-02-17T08:27:49.877Z,90.51
2019-02-17T08:30:21.239Z,90.15
2019-02-17T08:32:52.500Z,89.16
2019-02-17T08:35:24.013Z,89.57
2019-02-17T08:37:55.359Z,88.33
2019-02-17T08:40:26.834Z,87.66
2019-02-17T08:42:58.207Z,87.20
2019-02-17T08:45:29.691Z,87.08
2019-02-17T08:48:01.158Z,86.49
2019-02-17T08:50:32.598Z,86.42
2019-02-17T08:53:04.052Z,84.95
2019-02-17T08:55:35.381Z,85.03
2019-02-17T08:58:06.809Z,84.39
2019-02-17T09:00:38.124Z,84.57
2019-02-17T09:03:09.524Z,85.46
2019-02-17T09:05:44.409Z,85.24
2019-02-17T09:08:15.366Z,84.38
2019-02-17T09:10:46.711Z,84.31
2019-02-17T09:13:18.655Z,84.40
2019-02-17T09:15:50.423Z,84.18
2019-02-17T09:18:21.818Z,84.55
2019-02-17T09:20:53.310Z,84.88
2019-02-17T09:23:24.647Z,84.47
2019-02-17T09:25:55.983Z,84.29
2019-02-17T09:28:27.355Z,84.41
2019-02-17T09:30:58.762Z,84.28
2019-02-17T09:33:30.078Z,83.88
2019-02-17T09:36:01.566Z,83.66
2019-02-17T09:38:32.978Z,83.62
2019-02-17T09:41:04.457Z,83.54
2019-02-17T09:43:35.841Z,83.84
2019-02-17T09:46:07.170Z,83.33
2019-02-17T09:48:38.519Z,82.93
2019-02-17T09:51:11.067Z,81.64
2019-02-17T09:53:42.414Z,81.26
2019-02-17T09:56:14.817Z,81.32
2019-02-17T09:58:46.154Z,81.36
2019-02-17T10:01:17.527Z,80.79
2019-02-17T10:03:48.944Z,80.58
2019-02-17T10:06:20.421Z,80.33
2019-02-17T10:08:51.778Z,80.34
2019-02-17T10:11:23.194Z,79.69
2019-02-17T10:13:54.759Z,79.00
2019-02-17T10:16:26.237Z,78.94
2019-02-17T10:18:57.554Z,78.48
2019-02-17T10:21:29.095Z,78.66
2019-02-17T10:24:00.566Z,77.65
2019-02-17T10:26:31.909Z,78.35
2019-02-17T10:29:03.248Z,76.91
2019-02-17T10:31:34.543Z,77.22
2019-02-17T10:34:05.867Z,75.86
2019-02-17T10:36:37.213Z,75.86
2019-02-17T10:39:08.713Z,75.05
2019-02-17T10:41:40.196Z,74.16
2019-02-17T10:44:11.605Z,74.72
2019-02-17T10:46:43.123Z,75.92
2019-02-17T10:49:14.450Z,74.76
2019-02-17T10:51:45.879Z,73.68
2019-02-17T10:54:17.215Z,72.73
2019-02-17T10:56:48.551Z,72.79
2019-02-17T10:59:20.045Z,70.76
2019-02-17T11:01:51.605Z,72.38
2019-02-17T11:04:22.899Z,72.38
2019-02-17T11:06:54.256Z,71.73
2019-02-17T11:09:25.605Z,71.33
2019-02-17T11:11:56.996Z,71.57
2019-02-17T11:14:28.437Z,71.51
2019-02-17T11:17:00.108Z,70.84
2019-02-17T11:19:31.544Z,70.72
2019-02-17T11:22:02.978Z,70.61
2019-02-17T11:24:34.323Z,71.06
2019-02-17T11:27:05.777Z,70.50
2019-02-17T11:29:37.262Z,70.38
2019-02-17T11:32:08.678Z,69.94
2019-02-17T11:34:40.100Z,69.66
2019-02-17T11:37:11.459Z,69.46
2019-02-17T11:39:42.797Z,69.32
2019-02-17T11:42:14.101Z,69.50
2019-02-17T11:44:45.523Z,68.78
2019-02-17T11:47:16.902Z,68.44
2019-02-17T11:49:48.125Z,68.54
2019-02-17T11:52:19.543Z,68.42
2019-02-17T11:54:51.021Z,67.58
2019-02-17T11:57:22.483Z,66.53
2019-02-17T11:59:53.911Z,65.60
2019-02-17T12:02:25.530Z,64.57
2019-02-17T12:04:57.447Z,64.08
2019-02-17T12:07:28.865Z,63.42
2019-02-17T12:10:01.463Z,64.32
2019-02-17T12:12:33.915Z,64.18
2019-02-17T12:15:08.624Z,62.17
2019-02-17T12:17:40.149Z,62.41
2019-02-17T12:20:41.391Z,62.46
2019-02-17T12:23:20.400Z,62.22
2019-02-17T12:25:56.344Z,60.95
2019-02-17T12:28:29.227Z,60.99
2019-02-17T12:31:00.682Z,60.84
2019-02-17T12:33:32.003Z,62.02
2019-02-17T12:36:03.326Z,62.31
2019-02-17T12:38:34.718Z,61.76
2019-02-17T12:41:06.170Z,61.48
2019-02-17T12:43:37.613Z,61.61
2019-02-17T12:46:09.076Z,61.38
2019-02-17T12:48:40.537Z,60.02
2019-02-17T12:51:11.913Z,59.38
2019-02-17T12:53:43.307Z,58.93
2019-02-17T12:56:14.662Z,58.96
2019-02-17T12:58:45.901Z,57.14
2019-02-17T13:01:17.358Z,57.33
2019-02-17T13:03:48.679Z,57.64
2019-02-17T13:06:20.064Z,57.71
2019-02-17T13:08:51.395Z,59.73
2019-02-17T13:11:22.810Z,59.57
2019-02-17T13:13:54.204Z,59.57
2019-02-17T13:16:25.554Z,59.63
2019-02-17T13:18:57.028Z,58.91
2019-02-17T13:21:28.343Z,58.47
2019-02-17T13:23:59.634Z,57.50
2019-02-17T13:26:30.950Z,56.74
2019-02-17T13:29:02.337Z,53.42
2019-02-17T13:31:33.738Z,52.87
2019-02-17T13:34:05.194Z,52.73
2019-02-17T13:36:36.532Z,52.63
2019-02-17T13:39:08.012Z,52.75
2019-02-17T13:41:39.464Z,51.95
2019-02-17T13:44:10.770Z,52.20
2019-02-17T13:46:42.271Z,51.77
2019-02-17T13:49:13.892Z,52.85
2019-02-17T13:51:45.468Z,52.93
2019-02-17T13:54:16.884Z,53.31
2019-02-17T13:56:48.273Z,53.70
2019-02-17T13:59:19.609Z,54.01
2019-02-17T14:01:51.035Z,54.07
2019-02-17T14:04:22.604Z,54.27
2019-02-17T14:06:53.917Z,54.04
2019-02-17T14:09:25.391Z,54.68
2019-02-17T14:11:56.738Z,55.23
2019-02-17T14:14:28.398Z,54.67
2019-02-17T14:16:59.835Z,55.37
2019-02-17T14:19:31.184Z,55.53
2019-02-17T14:22:02.541Z,55.90
2019-02-17T14:24:34.020Z,56.07
2019-02-17T14:27:05.449Z,56.55
2019-02-17T14:29:36.876Z,56.96
2019-02-17T14:32:08.332Z,57.23
2019-02-17T14:34:39.648Z,56.19
2019-02-17T14:37:13.263Z,57.07
2019-02-17T14:39:44.016Z,57.46
2019-02-17T14:42:15.353Z,57.06
2019-02-17T14:44:47.037Z,57.41
2019-02-17T14:47:18.563Z,57.41
2019-02-17T14:49:50.059Z,57.91
2019-02-17T14:52:21.392Z,57.94
2019-02-17T14:54:52.744Z,58.29
2019-02-17T14:57:24.108Z,57.45
2019-02-17T14:59:55.638Z,58.89
2019-02-17T15:02:26.873Z,58.03
2019-02-17T15:04:58.255Z,58.42
2019-02-17T15:07:29.663Z,59.09
2019-02-17T15:10:01.016Z,59.20
2019-02-17T15:12:33.584Z,58.24
2019-02-17T15:15:07.265Z,58.78
2019-02-17T15:17:38.634Z,59.55
2019-02-17T15:20:13.188Z,59.69
2019-02-17T15:22:44.516Z,59.65
2019-02-17T15:25:15.816Z,60.05
2019-02-17T15:27:47.195Z,59.88
2019-02-17T15:30:18.653Z,60.10
2019-02-17T15:32:49.996Z,60.37
2019-02-17T15:35:22.464Z,60.41
2019-02-17T15:37:54.135Z,60.32
2019-02-17T15:40:26.572Z,61.25
2019-02-17T15:42:58.020Z,61.90
2019-02-17T15:45:29.446Z,62.04
2019-02-17T15:48:00.753Z,62.05
2019-02-17T15:50:32.117Z,61.93
2019-02-17T15:53:03.552Z,62.63
2019-02-17T15:55:35.001Z,62.42
2019-02-17T15:58:06.442Z,63.28
2019-02-17T16:00:37.801Z,62.44
2019-02-17T16:03:09.170Z,63.07
2019-02-17T16:05:40.632Z,63.09
2019-02-17T16:08:12.071Z,63.48
2019-02-17T16:10:43.424Z,64.03
2019-02-17T16:13:14.763Z,64.11
2019-02-17T16:15:46.305Z,64.01
2019-02-17T16:18:17.747Z,64.50
2019-02-17T16:20:50.224Z,65.15
2019-02-17T16:23:21.660Z,64.87
2019-02-17T16:25:53.132Z,65.15
2019-02-17T16:28:24.576Z,65.21
2019-02-17T16:30:56.020Z,65.43
2019-02-17T16:33:27.394Z,65.55
2019-02-17T16:35:58.848Z,65.79
2019-02-17T16:38:30.211Z,66.77
2019-02-17T16:41:01.540Z,66.84
2019-02-17T16:43:32.966Z,66.68
2019-02-17T16:46:04.406Z,67.21
2019-02-17T16:48:35.875Z,67.31
2019-02-17T16:51:07.420Z,67.04
2019-02-17T16:53:38.875Z,67.26
2019-02-17T16:56:10.335Z,67.63
2019-02-17T16:58:41.737Z,68.21
2019-02-17T17:01:13.214Z,68.32
2019-02-17T17:03:44.672Z,67.94
2019-02-17T17:06:16.134Z,68.96
2019-02-17T17:08:47.569Z,68.54
2019-02-17T17:11:18.886Z,68.54
2019-02-17T17:13:50.361Z,69.23
2019-02-17T17:16:21.724Z,69.18
2019-02-17T17:18:53.072Z,70.29
2019-02-17T17:21:24.546Z,69.80
2019-02-17T17:23:55.901Z,69.91
2019-02-17T17:26:27.320Z,70.21
2019-02-17T17:28:58.745Z,70.62
2019-02-17T17:31:30.202Z,70.99
2019-02-17T17:34:01.547Z,71.26
2019-02-17T17:36:32.893Z,71.05
2019-02-17T17:39:04.474Z,71.21
2019-02-17T17:41:37.822Z,71.10
2019-02-17T17:44:09.191Z,71.32
2019-02-17T17:46:40.653Z,71.18
2019-02-17T17:49:19.016Z,71.25
2019-02-17T17:51:46.420Z,71.27
2019-02-17T17:54:17.848Z,71.21
2019-02-17T17:56:49.217Z,71.68
2019-02-17T17:59:20.776Z,72.38
2019-02-17T18:01:51.984Z,71.86
2019-02-17T18:04:23.478Z,71.65
2019-02-17T18:06:57.007Z,72.06
2019-02-17T18:09:27.929Z,72.06
2019-02-17T18:11:59.450Z,71.79
2019-02-17T18:14:30.817Z,71.87
2019-02-17T18:17:02.055Z,71.86
2019-02-17T18:19:33.493Z,71.69
2019-02-17T18:22:04.947Z,72.82
2019-02-17T18:24:36.401Z,72.77
2019-02-17T18:27:07.966Z,73.14
2019-02-17T18:29:39.334Z,73.26
2019-02-17T18:32:10.745Z,73.10
2019-02-17T18:34:42.206Z,73.20
2019-02-17T18:37:13.546Z,73.73
2019-02-17T18:39:45.764Z,74.23
2019-02-17T18:42:17.172Z,73.74
2019-02-17T18:44:48.413Z,73.38
2019-02-17T18:47:20.019Z,73.84
2019-02-17T18:49:51.422Z,73.65
2019-02-17T18:52:22.878Z,73.84
2019-02-17T18:54:55.275Z,73.95
2019-02-17T18:57:26.623Z,73.62
2019-02-17T18:59:58.130Z,73.78
2019-02-17T19:02:29.472Z,74.15
2019-02-17T19:05:01.134Z,74.15
2019-02-17T19:07:32.490Z,74.04
2019-02-17T19:10:04.954Z,73.89
2019-02-17T19:12:36.412Z,74.33
2019-02-17T19:15:12.814Z,74.51
2019-02-17T19:17:44.199Z,74.90
2019-02-17T19:20:30.585Z,74.67
2019-02-17T19:23:02.078Z,74.98
2019-02-17T19:25:33.527Z,74.81
2019-02-17T19:28:04.978Z,75.52
2019-02-17T19:30:36.429Z,75.18
2019-02-17T19:33:07.892Z,75.00
2019-02-17T19:35:42.119Z,75.53
2019-02-17T19:38:12.330Z,75.25
2019-02-17T19:40:43.764Z,75.67
2019-02-17T19:43:15.310Z,75.49
2019-02-17T19:45:46.632Z,75.64
2019-02-17T19:48:17.984Z,76.01
2019-02-17T19:50:49.326Z,75.99
2019-02-17T19:53:20.623Z,76.22
2019-02-17T19:55:51.997Z,76.35
2019-02-17T19:58:23.401Z,75.94
2019-02-17T20:00:54.798Z,76.32
2019-02-17T20:03:36.664Z,76.49
2019-02-17T20:06:09.203Z,76.66
2019-02-17T20:08:40.558Z,76.68
2019-02-17T20:11:11.997Z,76.70
2019-02-17T20:13:43.454Z,76.70
2019-02-17T20:16:15.883Z,76.87
2019-02-17T20:18:47.382Z,77.02
2019-02-17T20:21:18.714Z,77.15
2019-02-17T20:23:50.062Z,77.16
2019-02-17T20:26:21.384Z,77.74
2019-02-17T20:28:57.226Z,77.55
2019-02-17T20:31:25.875Z,77.28
2019-02-17T20:33:57.329Z,77.99
2019-02-17T20:36:30.022Z,77.59
2019-02-17T20:39:01.479Z,77.60
2019-02-17T20:41:34.001Z,77.77
2019-02-17T20:44:05.368Z,78.09
2019-02-17T20:46:36.828Z,78.02
2019-02-17T20:49:08.287Z,78.17
2019-02-17T20:51:39.726Z,77.70
2019-02-17T20:54:11.194Z,77.78
2019-02-17T20:56:42.564Z,77.63
2019-02-17T20:59:13.883Z,77.65
2019-02-17T21:01:45.312Z,78.24
2019-02-17T21:04:16.823Z,78.57
2019-02-17T21:06:48.228Z,79.02
2019-02-17T21:09:19.590Z,78.94
2019-02-17T21:11:50.964Z,79.54
2019-02-17T21:14:22.359Z,79.44
2019-02-17T21:16:53.813Z,79.62
2019-02-17T21:19:25.174Z,79.62
2019-02-17T21:21:56.634Z,79.73
2019-02-17T21:24:28.067Z,79.75
2019-02-17T21:26:59.398Z,80.47
2019-02-17T21:29:30.864Z,80.15
2019-02-17T21:32:03.375Z,80.43
2019-02-17T21:34:34.800Z,80.47
2019-02-17T21:37:06.132Z,80.52
2019-02-17T21:39:37.599Z,80.59
2019-02-17T21:42:09.074Z,81.10
2019-02-17T21:44:40.515Z,81.24
2019-02-17T21:47:11.935Z,81.25
2019-02-17T21:49:43.286Z,81.70
2019-02-17T21:52:14.636Z,81.83
2019-02-17T21:54:46.065Z,82.34
2019-02-17T21:57:18.582Z,82.44
2019-02-17T21:59:50.008Z,82.60
2019-02-17T22:02:21.465Z,83.10
2019-02-17T22:04:53.001Z,83.13
2019-02-17T22:07:24.165Z,83.34
2019-02-17T22:09:55.597Z,83.26
2019-02-17T22:12:27.055Z,83.64
2019-02-17T22:14:59.477Z,84.06
2019-02-17T22:17:30.870Z,84.08
2019-02-17T22:20:02.426Z,84.30
2019-02-17T22:22:33.851Z,84.64
2019-02-17T22:25:06.624Z,84.87
2019-02-17T22:27:37.930Z,84.89
2019-02-17T22:30:12.530Z,84.72
2019-02-17T22:32:43.878Z,84.64
2019-02-17T22:35:15.322Z,84.79
2019-02-17T22:37:46.679Z,85.02
2019-02-17T22:40:18.129Z,84.87
2019-02-17T22:42:49.435Z,85.34
2019-02-17T22:45:20.812Z,84.87
2019-02-17T22:47:52.272Z,85.31
2019-02-17T22:50:23.510Z,85.69
2019-02-17T22:52:54.962Z,85.75
2019-02-17T22:55:26.313Z,85.50
2019-02-17T22:57:57.799Z,86.00
2019-02-17T23:00:52.985Z,86.08
2019-02-17T23:03:25.840Z,86.14
2019-02-17T23:05:57.198Z,86.42
2019-02-17T23:08:28.552Z,86.49
2019-02-17T23:10:59.876Z,86.48
2019-02-17T23:13:31.353Z,86.42
2019-02-17T23:16:02.721Z,86.66
2019-02-17T23:18:34.058Z,86.53
2019-02-17T23:21:05.509Z,86.50
2019-02-17T23:23:36.922Z,86.72
2019-02-17T23:26:08.508Z,86.86
2019-02-17T23:28:39.948Z,86.71
2019-02-17T23:31:11.313Z,87.40
2019-02-17T23:33:42.667Z,87.14
2019-02-17T23:36:14.099Z,87.66
2019-02-17T23:38:45.402Z,87.32
2019-02-17T23:41:16.899Z,87.40
2019-02-17T23:43:48.250Z,87.12
2019-02-17T23:46:19.732Z,87.54
2019-02-17T23:48:51.034Z,87.34
2019-02-17T23:51:22.523Z,87.89
2019-02-17T23:53:53.933Z,87.54
2019-02-17T23:56:25.400Z,87.30
2019-02-17T23:58:56.844Z,87.27
